Time;durP1;ratioP1;P1;durP2;ratioP2;P2;SDS_P1;SDS_P2;PMS_P1;PMS_P2;Temp;Humidity;BMP_temperature;BMP_pressure;BME280_temperature;BME280_humidity;BME280_pressure;Samples;Min_cycle;Max_cycle;Signal;HPM_P1;HPM_P2
2023/01/11 00:00:10;;;;;;;;;;;;;;;7.36;100.00;103238.09;4997131;28;20068;-76
2023/01/11 00:02:36;;;;;;;;;;;;;;;7.37;100.00;103224.91;4997937;28;19922;-76
2023/01/11 00:05:01;;;;;;;;;;;;;;;7.40;100.00;103223.91;4998180;28;19998;-76
2023/01/11 00:07:26;;;;;;;;;;;;;;;7.39;100.00;103223.06;4998519;28;20102;-76
2023/01/11 00:09:52;;;;;;;;;;;;;;;7.42;100.00;103232.56;5000935;28;20516;-76
2023/01/11 00:12:17;;;;;;;;;;;;;;;7.44;100.00;103243.03;4997337;28;19917;-76
2023/01/11 00:14:42;;;;;;;;;;;;;;;7.47;100.00;103241.13;4997551;28;19921;-76
2023/01/11 00:17:08;;;;;;;;;;;;;;;7.49;100.00;103243.66;4995365;28;19969;-76
2023/01/11 00:19:33;;;;;;;;;;;;;;;7.50;100.00;103235.72;4997639;28;19968;-76
2023/01/11 00:21:58;;;;;;;;;;;;;;;7.52;100.00;103240.91;5029856;28;19917;-76
2023/01/11 00:24:23;;;;;;;;;;;;;;;7.54;100.00;103231.16;4997695;28;19953;-76
2023/01/11 00:26:49;;;;;;;;;;;;;;;7.56;100.00;103235.44;4997821;28;19925;-76
2023/01/11 00:29:14;;;;;;;;;;;;;;;7.58;100.00;103232.72;4981391;28;19922;-76
2023/01/11 00:31:39;;;;;;;;;;;;;;;7.59;100.00;103223.91;4997311;28;19971;-76
2023/01/11 00:34:04;;;;;;;;;;;;;;;7.61;100.00;103243.09;4995985;28;19926;-76
2023/01/11 00:36:30;;;;;;;;;;;;;;;7.66;100.00;103250.75;4998911;28;19922;-76
2023/01/11 00:38:55;;;;;;;;;;;;;;;7.70;100.00;103232.13;4997784;28;20074;-76
2023/01/11 00:49:33;;;;;;;;;;;;;;;7.76;100.00;103257.28;4997423;28;19932;-76
2023/01/11 00:51:58;;;;;;;;;;;;;;;7.75;100.00;103253.81;4997952;28;19918;-76
2023/01/11 00:54:23;;;;;;;;;;;;;;;7.78;100.00;103252.81;4998067;28;19917;-76
2023/01/11 00:56:49;;;;;;;;;;;;;;;7.80;100.00;103266.75;4997874;28;19933;-76
2023/01/11 00:59:14;;;;;;;;;;;;;;;7.82;100.00;103267.53;4997274;28;19933;-76
2023/01/11 01:01:39;;;;;;;;;;;;;;;7.84;100.00;103270.94;4996581;28;20281;-76
2023/01/11 01:04:05;;;;;;;;;;;;;;;7.86;100.00;103273.47;5011701;28;19926;-76
2023/01/11 01:06:30;;;;;;;;;;;;;;;7.89;100.00;103278.59;4988068;28;20349;-76
2023/01/11 01:08:55;;;;;;;;;;;;;;;7.89;100.00;103276.81;4996413;28;19929;-75
2023/01/11 01:11:21;;;;;;;;;;;;;;;7.91;100.00;103276.75;4998434;28;19929;-76
2023/01/11 01:16:33;;;;;;;;;;;;;;;7.95;100.00;103283.56;5003180;28;19979;-76
2023/01/11 01:18:58;;;;;;;;;;;;;;;7.94;100.00;103276.59;4996499;28;20019;-76
2023/01/11 01:21:24;;;;;;;;;;;;;;;7.96;100.00;103274.75;4996348;28;19917;-76
2023/01/11 01:23:53;;;;;;;;;;;;;;;7.97;100.00;103277.31;4996716;28;19917;-76
2023/01/11 01:26:19;;;;;;;;;;;;;;;7.99;100.00;103317.53;4998193;28;19922;-76
2023/01/11 01:28:44;;;;;;;;;;;;;;;8.00;100.00;103334.16;4995051;28;20648;-76
2023/01/11 01:31:09;;;;;;;;;;;;;;;7.99;100.00;103335.94;4995889;28;19926;-76
2023/01/11 01:33:35;;;;;;;;;;;;;;;8.02;100.00;103324.44;4996563;28;19944;-76
2023/01/11 01:36:00;;;;;;;;;;;;;;;8.04;100.00;103331.31;5027687;28;19929;-76
2023/01/11 01:38:26;;;;;;;;;;;;;;;8.04;100.00;103328.69;4995154;28;19929;-76
2023/01/11 01:40:51;;;;;;;;;;;;;;;8.07;100.00;103348.72;4995865;28;19921;-76
2023/01/11 01:43:17;;;;;;;;;;;;;;;8.07;100.00;103346.09;5011303;28;19968;-76
2023/01/11 01:45:42;;;;;;;;;;;;;;;8.10;100.00;103350.34;4996048;28;20038;-76
2023/01/11 01:48:16;;;;;;;;;;;;;;;8.11;100.00;103350.28;4996320;28;19918;-76
2023/01/11 01:50:44;;;;;;;;;;;;;;;8.12;100.00;103349.38;4995319;28;20761;-76
2023/01/11 01:53:12;;;;;;;;;;;;;;;8.13;100.00;103361.59;5026527;28;19929;-76
2023/01/11 01:55:39;;;;;;;;;;;;;;;8.19;100.00;103358.69;4996415;28;19918;-76
2023/01/11 01:58:08;;;;;;;;;;;;;;;8.22;100.00;103360.31;4994627;28;20019;-76
2023/01/11 02:00:33;;;;;;;;;;;;;;;8.25;100.00;103362.78;4995727;28;20020;-77
2023/01/11 02:02:59;;;;;;;;;;;;;;;8.29;100.00;103374.03;5025668;28;20377;-76
2023/01/11 02:05:25;;;;;;;;;;;;;;;8.30;100.00;103386.25;4995210;28;19933;-76
2023/01/11 02:07:53;;;;;;;;;;;;;;;8.33;100.00;103380.84;4995632;28;19926;-76
2023/01/11 02:10:20;;;;;;;;;;;;;;;8.36;100.00;103383.31;4995745;28;19929;-76
2023/01/11 02:12:49;;;;;;;;;;;;;;;8.38;100.00;103395.50;5027300;28;19917;-76
2023/01/11 02:15:15;;;;;;;;;;;;;;;8.42;100.00;103389.16;5027849;28;19957;-76
2023/01/11 02:17:40;;;;;;;;;;;;;;;8.45;100.00;103393.47;4995906;28;19921;-76
2023/01/11 02:20:19;;;;;;;;;;;;;;;8.47;100.00;103402.13;5010441;28;19937;-76
2023/01/11 02:22:59;;;;;;;;;;;;;;;8.52;100.00;103415.91;5025804;28;19944;-76
2023/01/11 02:25:36;;;;;;;;;;;;;;;8.53;100.00;103412.34;4996438;28;19922;-76
2023/01/11 02:28:20;;;;;;;;;;;;;;;8.56;100.00;103425.38;4995620;28;19925;-76
2023/01/11 02:30:45;;;;;;;;;;;;;;;8.62;100.00;103425.09;5009833;28;19932;-78
2023/01/11 02:33:23;;;;;;;;;;;;;;;8.60;100.00;103429.56;4995809;28;20011;-76
2023/01/11 02:35:48;;;;;;;;;;;;;;;8.65;100.00;103437.25;4995213;28;19975;-76
2023/01/11 02:38:26;;;;;;;;;;;;;;;8.65;100.00;103431.97;4996257;28;20432;-76
2023/01/11 02:40:55;;;;;;;;;;;;;;;8.72;100.00;103443.06;4995882;28;19921;-76
2023/01/11 02:46:19;;;;;;;;;;;;;;;8.75;100.00;103458.69;4996652;28;19948;-76
2023/01/11 02:48:44;;;;;;;;;;;;;;;8.77;100.00;103460.31;4995680;28;19918;-76
2023/01/11 02:51:33;;;;;;;;;;;;;;;8.79;100.00;103465.53;4996164;28;19921;-76
2023/01/11 02:54:04;;;;;;;;;;;;;;;8.81;100.00;103471.56;4989773;28;19934;-76
2023/01/11 02:56:32;;;;;;;;;;;;;;;8.83;100.00;103477.63;5024391;28;19975;-76
2023/01/11 02:58:59;;;;;;;;;;;;;;;8.83;100.00;103482.88;4994573;28;19921;-76
2023/01/11 03:01:25;;;;;;;;;;;;;;;8.86;100.00;103488.00;4995637;28;19914;-76
2023/01/11 03:03:53;;;;;;;;;;;;;;;8.88;100.00;103486.13;5025925;28;20293;-76
2023/01/11 03:06:24;;;;;;;;;;;;;;;8.90;100.00;103492.19;4995352;28;20357;-77
2023/01/11 03:09:02;;;;;;;;;;;;;;;8.95;100.00;103497.22;4995352;28;19929;-77
2023/01/11 03:14:31;;;;;;;;;;;;;;;8.96;100.00;103507.69;4995787;28;19950;-77
2023/01/11 03:17:08;;;;;;;;;;;;;;;9.00;100.00;103517.16;5025054;28;20620;-77
2023/01/11 03:19:38;;;;;;;;;;;;;;;9.03;100.00;103518.78;5009223;28;20000;-76
2023/01/11 03:22:03;;;;;;;;;;;;;;;9.03;100.00;103522.28;5025494;28;20384;-77
2023/01/11 03:24:39;;;;;;;;;;;;;;;9.06;100.00;103524.78;4996514;28;19914;-77
2023/01/11 03:27:08;;;;;;;;;;;;;;;9.13;100.00;103529.75;5001480;28;19925;-77
2023/01/11 03:29:46;;;;;;;;;;;;;;;9.13;100.00;103537.66;4994956;28;19925;-77
2023/01/11 03:32:30;;;;;;;;;;;;;;;9.16;100.00;103553.31;5026289;28;20340;-77
2023/01/11 03:35:09;;;;;;;;;;;;;;;9.17;100.00;103558.50;4995402;28;19925;-77
2023/01/11 03:37:44;;;;;;;;;;;;;;;9.20;100.00;103570.69;4995397;28;19922;-77
2023/01/11 03:40:19;;;;;;;;;;;;;;;9.22;100.00;103580.22;4993621;28;20365;-77
2023/01/11 03:45:34;;;;;;;;;;;;;;;9.25;100.00;103581.84;4995429;28;20788;-77
2023/01/11 03:48:01;;;;;;;;;;;;;;;9.26;100.00;103588.84;4995543;28;19924;-77
2023/01/11 03:50:27;;;;;;;;;;;;;;;9.29;100.00;103604.47;4995276;28;20015;-76
2023/01/11 03:52:53;;;;;;;;;;;;;;;9.30;100.00;103602.69;4994807;28;20461;-76
2023/01/11 03:55:19;;;;;;;;;;;;;;;9.33;100.00;103613.94;4994286;28;20020;-77
2023/01/11 03:57:50;;;;;;;;;;;;;;;9.36;100.00;103613.78;5010450;28;20016;-77
2023/01/11 04:00:17;;;;;;;;;;;;;;;9.38;100.00;103621.63;4994502;28;19922;-77
2023/01/11 04:02:42;;;;;;;;;;;;;;;9.41;100.00;103627.63;4994568;28;20048;-77
2023/01/11 04:05:09;;;;;;;;;;;;;;;9.45;100.00;103634.47;4994123;28;20020;-76
2023/01/11 04:07:34;;;;;;;;;;;;;;;9.46;100.00;103636.16;5026108;28;19922;-76
2023/01/11 04:09:59;;;;;;;;;;;;;;;9.47;100.00;103643.16;5012524;28;20278;-76
2023/01/11 04:12:24;;;;;;;;;;;;;;;9.46;100.00;103646.69;4996956;28;20067;-76
2023/01/11 04:14:50;;;;;;;;;;;;;;;9.51;100.00;103649.09;5027410;28;19925;-76
2023/01/11 04:17:15;;;;;;;;;;;;;;;9.51;100.00;103648.25;4997180;28;19929;-76
2023/01/11 04:19:41;;;;;;;;;;;;;;;9.48;100.00;103642.22;5028435;28;19927;-76
2023/01/11 04:22:06;;;;;;;;;;;;;;;9.48;100.00;103633.44;4997822;28;19922;-75
2023/01/11 04:24:31;;;;;;;;;;;;;;;9.50;100.00;103636.03;5005707;28;19991;-76
2023/01/11 04:26:56;;;;;;;;;;;;;;;9.47;100.00;103619.41;5027901;28;19913;-76
2023/01/11 04:29:21;;;;;;;;;;;;;;;9.47;100.00;103613.28;4997702;28;19933;-77
2023/01/11 04:31:47;;;;;;;;;;;;;;;9.45;100.00;103589.66;5004079;28;19930;-76
2023/01/11 04:34:12;;;;;;;;;;;;;;;9.39;100.00;103570.66;4997991;28;19925;-75
2023/01/11 04:36:37;;;;;;;;;;;;;;;9.40;100.00;103567.06;4997987;28;19926;-77
2023/01/11 04:39:03;;;;;;;;;;;;;;;9.36;100.00;103513.63;5005067;28;19929;-76
2023/01/11 04:44:12;;;;;;;;;;;;;;;9.30;100.00;103482.34;4997503;28;20407;-76
2023/01/11 04:46:37;;;;;;;;;;;;;;;9.28;100.00;103465.75;4997192;28;19925;-76
2023/01/11 04:49:03;;;;;;;;;;;;;;;9.25;100.00;103452.72;4998924;28;20368;-76
2023/01/11 04:51:28;;;;;;;;;;;;;;;9.26;100.00;103428.94;4996201;28;20433;-77
2023/01/11 04:53:53;;;;;;;;;;;;;;;9.23;100.00;103421.19;4997195;28;19918;-75
2023/01/11 04:56:18;;;;;;;;;;;;;;;9.24;100.00;103408.88;4996743;28;19932;-76
2023/01/11 04:58:44;;;;;;;;;;;;;;;9.23;100.00;103396.59;4995949;28;20335;-76
2023/01/11 05:01:18;;;;;;;;;;;;;;;9.25;100.00;103381.56;4996196;28;19921;-76
2023/01/11 05:03:44;;;;;;;;;;;;;;;9.19;100.00;103363.44;4997744;28;19921;-76
2023/01/11 05:06:10;;;;;;;;;;;;;;;9.20;100.00;103342.28;4999463;28;20047;-75
2023/01/11 05:08:35;;;;;;;;;;;;;;;9.21;100.00;103324.69;4999079;28;19917;-74
2023/01/11 05:11:02;;;;;;;;;;;;;;;9.17;100.00;103294.19;4999219;28;20052;-77
2023/01/11 05:13:42;;;;;;;;;;;;;;;9.10;100.00;103275.19;4997200;28;20329;-76
2023/01/11 05:16:12;;;;;;;;;;;;;;;9.11;100.00;103250.56;5027668;28;19929;-76
2023/01/11 05:18:41;;;;;;;;;;;;;;;9.10;100.00;103222.50;4996931;28;19921;-76
2023/01/11 05:21:08;;;;;;;;;;;;;;;9.06;100.00;103186.75;5028512;28;20035;-76
2023/01/11 05:23:36;;;;;;;;;;;;;;;9.02;100.00;103154.44;4998224;28;19921;-76
2023/01/11 05:26:02;;;;;;;;;;;;;;;9.05;100.00;103125.28;4996188;28;19933;-77
2023/01/11 05:28:28;;;;;;;;;;;;;;;9.07;100.00;103091.81;4997274;28;19926;-76
2023/01/11 05:30:53;;;;;;;;;;;;;;;9.08;100.00;103063.69;4995704;28;20263;-77
2023/01/11 05:33:19;;;;;;;;;;;;;;;9.05;100.00;103033.09;4995606;28;20052;-76
2023/01/11 05:35:44;;;;;;;;;;;;;;;9.02;100.00;102992.91;4997581;28;19928;-76
2023/01/11 05:38:09;;;;;;;;;;;;;;;8.94;100.00;102953.84;5027799;28;19917;-75
2023/01/11 05:40:34;;;;;;;;;;;;;;;8.96;100.00;102925.63;4997787;28;19988;-75
2023/01/11 05:43:00;;;;;;;;;;;;;;;8.95;100.00;102886.19;4996939;28;19925;-77
2023/01/11 05:45:28;;;;;;;;;;;;;;;8.94;100.00;102848.50;4996053;28;20016;-77
2023/01/11 05:47:53;;;;;;;;;;;;;;;8.92;100.00;102818.75;4995330;28;19921;-77
2023/01/11 05:50:18;;;;;;;;;;;;;;;8.97;100.00;102794.78;4996083;28;20020;-78
2023/01/11 05:52:43;;;;;;;;;;;;;;;8.90;100.00;102760.06;4996168;28;19921;-77
2023/01/11 05:55:09;;;;;;;;;;;;;;;8.89;100.00;102724.16;4996502;28;19951;-77
2023/01/11 05:57:34;;;;;;;;;;;;;;;8.89;100.00;102708.38;4995713;28;20016;-77
2023/01/11 05:59:59;;;;;;;;;;;;;;;8.84;100.00;102673.53;5024689;28;19925;-76
2023/01/11 06:02:24;;;;;;;;;;;;;;;8.84;100.00;102656.00;5007910;28;19929;-77
2023/01/11 06:04:50;;;;;;;;;;;;;;;8.88;100.00;102632.09;4998659;28;19929;-76
2023/01/11 06:07:15;;;;;;;;;;;;;;;8.84;100.00;102613.00;4996825;28;19929;-77
2023/01/11 06:09:40;;;;;;;;;;;;;;;8.85;100.00;102591.00;4995330;28;19929;-76
2023/01/11 06:12:06;;;;;;;;;;;;;;;8.86;100.00;102550.56;4994285;28;19932;-76
2023/01/11 06:14:31;;;;;;;;;;;;;;;8.83;100.00;102530.53;4993028;28;19933;-78
2023/01/11 06:16:56;;;;;;;;;;;;;;;8.80;100.00;102507.03;4995567;28;19921;-78
2023/01/11 06:19:21;;;;;;;;;;;;;;;8.77;100.00;102487.97;4994628;28;19995;-78
2023/01/11 06:21:46;;;;;;;;;;;;;;;8.78;100.00;102476.50;4994068;28;19945;-78
2023/01/11 06:24:12;;;;;;;;;;;;;;;8.76;100.00;102459.97;5017687;28;19917;-78
2023/01/11 06:26:37;;;;;;;;;;;;;;;8.75;100.00;102451.19;4996388;28;19960;-78
2023/01/11 06:29:02;;;;;;;;;;;;;;;8.76;100.00;102433.63;4993416;28;20008;-79
2023/01/11 06:31:28;;;;;;;;;;;;;;;8.74;100.00;102410.03;4994520;28;19933;-78
2023/01/11 06:33:53;;;;;;;;;;;;;;;8.68;100.00;102404.31;4993846;28;19972;-79
2023/01/11 06:36:18;;;;;;;;;;;;;;;8.73;100.00;102394.31;4995121;28;19922;-76
2023/01/11 06:38:43;;;;;;;;;;;;;;;8.74;100.00;102388.13;4995427;28;19921;-79
2023/01/11 06:41:09;;;;;;;;;;;;;;;8.77;100.00;102382.66;4994857;28;20009;-79
2023/01/11 06:43:36;;;;;;;;;;;;;;;8.76;100.00;102376.56;4992300;28;19918;-79
2023/01/11 06:46:02;;;;;;;;;;;;;;;8.75;100.00;102376.66;5026234;28;19925;-78
2023/01/11 06:48:27;;;;;;;;;;;;;;;8.72;100.00;102366.34;4995049;28;19918;-78
2023/01/11 06:50:54;;;;;;;;;;;;;;;8.71;100.00;102349.69;4995742;28;19921;-78
2023/01/11 06:53:20;;;;;;;;;;;;;;;8.71;100.00;102340.94;4994467;28;19929;-78
2023/01/11 06:55:48;;;;;;;;;;;;;;;8.74;100.00;102327.59;4994948;28;19917;-79
2023/01/11 06:58:14;;;;;;;;;;;;;;;8.72;100.00;102311.91;5024101;28;20337;-78
2023/01/11 07:00:39;;;;;;;;;;;;;;;8.71;100.00;102302.31;4993307;28;19918;-78
2023/01/11 07:03:05;;;;;;;;;;;;;;;8.70;100.00;102291.88;4993295;28;20615;-78
2023/01/11 07:05:31;;;;;;;;;;;;;;;8.72;100.00;102268.94;4994289;28;20385;-78
2023/01/11 07:07:57;;;;;;;;;;;;;;;8.72;100.00;102253.16;4993302;28;19920;-78
2023/01/11 07:10:22;;;;;;;;;;;;;;;8.72;100.00;102240.00;4995021;28;19926;-78
2023/01/11 07:12:47;;;;;;;;;;;;;;;8.69;100.00;102224.38;4993585;28;19932;-78
2023/01/11 07:15:12;;;;;;;;;;;;;;;8.71;100.00;102196.16;4993982;28;19921;-78
2023/01/11 07:17:38;;;;;;;;;;;;;;;8.68;100.00;102185.88;4993042;28;20370;-79
2023/01/11 07:20:04;;;;;;;;;;;;;;;8.68;100.00;102183.22;4994615;28;20016;-78
2023/01/11 07:22:32;;;;;;;;;;;;;;;8.67;100.00;102166.59;4993925;28;19936;-78
2023/01/11 07:24:57;;;;;;;;;;;;;;;8.66;100.00;102138.59;4993368;28;19971;-78
2023/01/11 07:27:22;;;;;;;;;;;;;;;8.63;100.00;102126.50;4993617;28;19930;-78
2023/01/11 07:29:48;;;;;;;;;;;;;;;8.60;100.00;102102.16;4995056;28;20439;-78
2023/01/11 07:32:13;;;;;;;;;;;;;;;8.59;100.00;102085.53;5009815;28;20352;-78
2023/01/11 07:34:38;;;;;;;;;;;;;;;8.62;100.00;102072.19;4978941;28;20013;-78
2023/01/11 07:37:03;;;;;;;;;;;;;;;8.64;100.00;102065.03;4993435;28;19918;-78
2023/01/11 07:39:29;;;;;;;;;;;;;;;8.65;100.00;102057.97;4994378;28;19918;-79
2023/01/11 07:44:38;;;;;;;;;;;;;;;8.61;100.00;102057.31;4997881;28;19956;-79
2023/01/11 07:47:03;;;;;;;;;;;;;;;8.58;100.00;102036.50;4996889;28;19925;-78
2023/01/11 07:49:28;;;;;;;;;;;;;;;8.57;100.00;102026.06;4997762;28;19917;-79
2023/01/11 07:51:54;;;;;;;;;;;;;;;8.56;100.00;102011.25;4997292;28;19940;-79
2023/01/11 07:54:19;;;;;;;;;;;;;;;8.53;100.00;101985.97;4997330;28;19948;-79
2023/01/11 07:56:44;;;;;;;;;;;;;;;8.52;100.00;101962.41;4997001;28;20460;-78
2023/01/11 07:59:09;;;;;;;;;;;;;;;8.47;100.00;101944.34;4995661;28;20372;-78
2023/01/11 08:01:35;;;;;;;;;;;;;;;8.46;100.00;101904.97;4996636;28;19917;-78
2023/01/11 08:04:01;;;;;;;;;;;;;;;8.46;100.00;101874.22;4996688;28;19914;-78
2023/01/11 08:06:26;;;;;;;;;;;;;;;8.39;100.00;101836.16;4996666;28;19969;-79
2023/01/11 08:08:51;;;;;;;;;;;;;;;8.39;100.00;101808.03;4997445;28;19921;-78
2023/01/11 08:16:44;;;;;;;;;;;;;;;8.30;100.00;101715.84;4996578;28;19971;-79
2023/01/11 08:19:09;;;;;;;;;;;;;;;8.29;100.00;101693.09;4996770;28;19953;-79
2023/01/11 08:21:35;;;;;;;;;;;;;;;8.28;100.00;101665.16;5012836;28;19940;-78
2023/01/11 08:24:00;;;;;;;;;;;;;;;8.31;100.00;101641.22;4996604;28;20324;-78
2023/01/11 08:26:26;;;;;;;;;;;;;;;8.35;100.00;101632.16;4997324;28;19917;-78
2023/01/11 08:28:52;;;;;;;;;;;;;;;8.36;100.00;101618.03;4996759;28;19952;-78
2023/01/11 08:31:17;;;;;;;;;;;;;;;8.36;100.00;101610.16;4995738;28;20242;-78
2023/01/11 08:33:42;;;;;;;;;;;;;;;8.31;100.00;101597.34;4994803;28;19947;-78
2023/01/11 08:36:09;;;;;;;;;;;;;;;8.26;100.00;101590.78;4996701;28;19921;-79
2023/01/11 08:38:34;;;;;;;;;;;;;;;8.22;100.00;101575.22;5026908;28;19926;-78
2023/01/11 08:41:00;;;;;;;;;;;;;;;8.26;100.00;101567.13;4996856;28;19918;-78
2023/01/11 08:43:25;;;;;;;;;;;;;;;8.27;100.00;101558.25;4995087;28;19929;-78
2023/01/11 08:45:51;;;;;;;;;;;;;;;8.24;100.00;101554.06;4996440;28;19924;-78
2023/01/11 08:48:16;;;;;;;;;;;;;;;8.22;100.00;101555.97;5011741;28;19951;-78
2023/01/11 08:50:43;;;;;;;;;;;;;;;8.20;100.00;101566.59;4995483;28;20083;-78
2023/01/11 08:53:09;;;;;;;;;;;;;;;8.19;100.00;101572.84;4997340;28;19927;-78
2023/01/11 08:55:34;;;;;;;;;;;;;;;8.21;100.00;101586.72;5026355;28;20261;-78
2023/01/11 08:57:59;;;;;;;;;;;;;;;8.23;100.00;101597.94;4996958;28;20406;-78
2023/01/11 09:00:24;;;;;;;;;;;;;;;8.20;100.00;101606.06;4995984;28;20008;-78
2023/01/11 09:02:50;;;;;;;;;;;;;;;8.20;100.00;101616.56;4995457;28;20051;-78
2023/01/11 09:05:15;;;;;;;;;;;;;;;8.22;100.00;101611.19;4996502;28;19922;-79
2023/01/11 09:07:40;;;;;;;;;;;;;;;8.23;100.00;101619.00;5028370;28;19937;-79
2023/01/11 09:10:05;;;;;;;;;;;;;;;8.24;100.00;101610.13;4996474;28;19999;-78
2023/01/11 09:12:31;;;;;;;;;;;;;;;8.28;100.00;101613.38;5010850;28;20329;-79
2023/01/11 09:14:57;;;;;;;;;;;;;;;8.30;100.00;101602.75;4996380;28;19924;-78
2023/01/11 09:17:22;;;;;;;;;;;;;;;8.35;100.00;101596.16;4996193;28;19921;-78
2023/01/11 09:19:47;;;;;;;;;;;;;;;8.44;100.00;101594.66;4995519;28;19937;-79
2023/01/11 09:22:13;;;;;;;;;;;;;;;8.52;100.00;101589.66;4995455;28;20315;-79
2023/01/11 09:24:38;;;;;;;;;;;;;;;8.60;100.00;101576.75;4995839;28;19960;-79
2023/01/11 09:27:03;;;;;;;;;;;;;;;8.64;100.00;101559.75;5011636;28;19922;-78
2023/01/11 09:29:29;;;;;;;;;;;;;;;8.70;100.00;101533.91;4996253;28;20416;-79
2023/01/11 09:31:54;;;;;;;;;;;;;;;8.65;100.00;101498.28;5026242;28;19922;-78
2023/01/11 09:34:19;;;;;;;;;;;;;;;8.69;100.00;101475.19;4995497;28;19921;-78
2023/01/11 09:36:47;;;;;;;;;;;;;;;9.38;100.00;101477.47;4995048;28;20398;-79
2023/01/11 09:39:15;;;;;;;;;;;;;;;10.48;100.00;101498.13;4995546;28;19921;-78
2023/01/11 09:41:50;;;;;;;;;;;;;;;11.81;100.00;101476.53;4996245;28;19921;-78
2023/01/11 09:44:20;;;;;;;;;;;;;;;13.55;100.00;101336.84;4995977;28;19914;-79
2023/01/11 09:46:48;;;;;;;;;;;;;;;15.15;100.00;101139.16;4993696;28;19918;-79
2023/01/11 09:49:18;;;;;;;;;;;;;;;16.24;100.00;100915.44;5026499;28;19991;-79
2023/01/11 09:51:45;;;;;;;;;;;;;;;17.21;100.00;100795.06;4995813;28;19983;-79
2023/01/11 09:54:15;;;;;;;;;;;;;;;17.84;100.00;100751.50;4995999;28;19968;-79
2023/01/11 09:56:45;;;;;;;;;;;;;;;18.17;100.00;100732.88;4995823;28;19936;-79
2023/01/11 09:59:19;;;;;;;;;;;;;;;19.33;100.00;100729.75;4994334;28;19933;-79
2023/01/11 10:01:52;;;;;;;;;;;;;;;20.56;100.00;100725.19;4994441;28;20307;-79
2023/01/11 10:04:36;;;;;;;;;;;;;;;21.04;92.51;100713.03;4994491;28;19914;-79
2023/01/11 10:07:21;;;;;;;;;;;;;;;20.89;84.14;100713.38;4994914;28;20328;-79
2023/01/11 10:10:03;;;;;;;;;;;;;;;21.09;90.00;100711.31;5010381;28;19928;-80
2023/01/11 10:12:51;;;;;;;;;;;;;;;21.50;86.91;100709.03;4995952;28;19968;-79
2023/01/11 10:15:36;;;;;;;;;;;;;;;22.04;75.69;100712.63;5009161;28;19917;-78
2023/01/11 10:18:03;;;;;;;;;;;;;;;22.56;82.02;100717.44;4994123;28;19918;-79
2023/01/11 10:20:34;;;;;;;;;;;;;;;21.90;69.66;100711.16;4993845;28;19929;-79
2023/01/11 10:23:10;;;;;;;;;;;;;;;21.65;70.84;100717.50;4994052;28;20313;-79
2023/01/11 10:25:46;;;;;;;;;;;;;;;20.91;76.35;100717.47;4994740;28;19955;-79
2023/01/11 10:28:18;;;;;;;;;;;;;;;22.03;80.13;100713.66;4995315;28;19921;-79
2023/01/11 10:30:54;;;;;;;;;;;;;;;21.24;75.04;100715.50;5025722;28;19928;-79
2023/01/11 10:33:44;;;;;;;;;;;;;;;20.84;70.97;100707.84;5025957;28;19952;-79
2023/01/11 10:37:08;;;;;;;;;;;;;;;20.98;84.20;100720.09;5009005;28;19914;-79
2023/01/11 10:42:20;;;;;;;;;;;;;;;21.17;70.87;100708.34;4952180;28;19918;-79
2023/01/11 10:44:51;;;;;;;;;;;;;;;22.63;71.63;100714.66;4937644;28;19952;-79
2023/01/11 10:47:18;;;;;;;;;;;;;;;21.27;69.46;100705.13;4948761;28;19918;-79
2023/01/11 10:49:55;;;;;;;;;;;;;;;20.40;74.57;100713.13;4950223;28;19954;-79
2023/01/11 10:52:21;;;;;;;;;;;;;;;18.06;81.60;100712.94;4951876;28;19918;-79
2023/01/11 10:54:52;;;;;;;;;;;;;;;18.05;89.96;100713.13;4967032;28;19944;-79
2023/01/11 10:57:21;;;;;;;;;;;;;;;17.54;92.91;100711.72;4967434;28;20088;-79
2023/01/11 10:59:55;;;;;;;;;;;;;;;15.99;99.99;100700.13;4948710;28;19972;-79
2023/01/11 11:02:21;;;;;;;;;;;;;;;15.59;100.00;100710.31;4951167;28;19921;-79
2023/01/11 11:05:03;;;;;;;;;;;;;;;15.49;100.00;100720.41;4949378;28;19922;-79
2023/01/11 11:07:47;;;;;;;;;;;;;;;15.04;100.00;100724.91;4947681;28;19945;-79
2023/01/11 11:10:31;;;;;;;;;;;;;;;15.02;100.00;100721.59;4936411;28;20417;-79
2023/01/11 11:13:05;;;;;;;;;;;;;;;14.45;100.00;100725.56;4950119;28;19999;-79
2023/01/11 11:15:34;;;;;;;;;;;;;;;13.20;100.00;100728.22;4993683;28;19938;-79
2023/01/11 11:17:59;;;;;;;;;;;;;;;12.88;100.00;100755.59;4995823;28;20460;-79
2023/01/11 11:20:29;;;;;;;;;;;;;;;12.65;100.00;100763.38;4999188;28;19930;-79
2023/01/11 11:22:57;;;;;;;;;;;;;;;12.23;100.00;100766.97;4997077;28;20675;-78
2023/01/11 11:25:38;;;;;;;;;;;;;;;12.12;100.00;100765.47;4998433;28;19921;-79
2023/01/11 11:28:23;;;;;;;;;;;;;;;11.80;100.00;100767.00;5029496;28;19924;-79
2023/01/11 11:30:51;;;;;;;;;;;;;;;11.38;100.00;100786.28;4996515;28;20039;-79
2023/01/11 11:33:23;;;;;;;;;;;;;;;11.50;100.00;100797.44;4998083;28;20389;-79
2023/01/11 11:36:05;;;;;;;;;;;;;;;11.52;100.00;100790.19;5013984;28;19960;-78
2023/01/11 11:38:32;;;;;;;;;;;;;;;11.63;100.00;100797.84;4999012;28;20032;-79
2023/01/11 11:40:58;;;;;;;;;;;;;;;11.55;100.00;100799.63;4997560;28;20384;-78
2023/01/11 11:43:23;;;;;;;;;;;;;;;10.99;100.00;100805.19;4997809;28;19953;-79
2023/01/11 11:45:50;;;;;;;;;;;;;;;10.98;100.00;100827.31;4997187;28;19922;-78
2023/01/11 11:48:15;;;;;;;;;;;;;;;10.75;100.00;100839.31;4997357;28;20501;-78
2023/01/11 11:50:41;;;;;;;;;;;;;;;10.67;100.00;100846.19;4997866;28;20012;-78
2023/01/11 11:53:06;;;;;;;;;;;;;;;10.69;100.00;100857.44;4999077;28;19925;-78
2023/01/11 11:55:32;;;;;;;;;;;;;;;10.79;100.00;100861.81;4997373;28;20566;-79
2023/01/11 11:58:07;;;;;;;;;;;;;;;10.91;100.00;100871.97;5011599;28;19918;-79
2023/01/11 12:00:38;;;;;;;;;;;;;;;10.52;100.00;100852.97;4995054;28;19997;-79
2023/01/11 12:03:13;;;;;;;;;;;;;;;10.60;100.00;100865.41;5028974;28;19976;-79
2023/01/11 12:05:47;;;;;;;;;;;;;;;10.45;100.00;100867.72;5028612;28;20348;-78
2023/01/11 12:08:13;;;;;;;;;;;;;;;10.59;100.00;100872.50;4997308;28;19971;-78
2023/01/11 12:10:46;;;;;;;;;;;;;;;10.36;100.00;100855.41;5029749;28;19973;-79
2023/01/11 12:13:25;;;;;;;;;;;;;;;10.18;100.00;100869.38;4997243;28;20008;-79
2023/01/11 12:15:57;;;;;;;;;;;;;;;10.04;100.00;100872.50;5028745;28;20016;-79
2023/01/11 12:18:30;;;;;;;;;;;;;;;9.97;100.00;100877.50;4995767;28;20040;-78
2023/01/11 12:20:55;;;;;;;;;;;;;;;9.85;100.00;100873.41;4997679;28;19925;-78
2023/01/11 12:23:23;;;;;;;;;;;;;;;9.76;100.00;100880.38;4996588;28;19917;-79
2023/01/11 12:26:00;;;;;;;;;;;;;;;9.76;100.00;100872.47;4996905;28;19973;-78
2023/01/11 12:28:44;;;;;;;;;;;;;;;9.83;100.00;100878.81;4995426;28;19928;-78
2023/01/11 12:31:32;;;;;;;;;;;;;;;9.84;100.00;100877.88;4995868;28;19922;-78
2023/01/11 12:34:04;;;;;;;;;;;;;;;9.82;100.00;100882.44;4997309;28;19948;-78
2023/01/11 12:36:38;;;;;;;;;;;;;;;9.75;100.00;100883.97;4998172;28;19972;-78
2023/01/11 12:39:17;;;;;;;;;;;;;;;9.81;100.00;100883.41;4996982;28;19921;-78
2023/01/11 12:41:47;;;;;;;;;;;;;;;9.90;100.00;100889.63;4996436;28;19937;-78
2023/01/11 12:44:15;;;;;;;;;;;;;;;9.65;100.00;100894.56;4995822;28;19917;-78
2023/01/11 12:46:46;;;;;;;;;;;;;;;9.62;100.00;100894.00;5009735;28;20004;-78
2023/01/11 12:49:23;;;;;;;;;;;;;;;9.58;100.00;100892.63;4997813;28;20041;-78
2023/01/11 12:51:49;;;;;;;;;;;;;;;9.64;100.00;100898.16;4997080;28;19921;-78
2023/01/11 12:54:17;;;;;;;;;;;;;;;9.68;100.00;100896.06;4997052;28;19913;-78
2023/01/11 12:56:57;;;;;;;;;;;;;;;9.68;100.00;100896.91;4995913;28;20569;-78
2023/01/11 12:59:28;;;;;;;;;;;;;;;9.72;100.00;100904.53;4995958;28;19932;-78
2023/01/11 13:02:16;;;;;;;;;;;;;;;9.77;100.00;100892.56;4995822;28;19928;-78
2023/01/11 13:04:45;;;;;;;;;;;;;;;9.69;100.00;100895.13;4992860;28;19952;-78
2023/01/11 13:07:18;;;;;;;;;;;;;;;9.54;100.00;100893.88;4996296;28;20037;-78
2023/01/11 13:09:55;;;;;;;;;;;;;;;9.62;100.00;100904.53;4996346;28;19913;-78
2023/01/11 13:12:37;;;;;;;;;;;;;;;9.66;100.00;100901.47;4996646;28;19922;-78
2023/01/11 13:15:06;;;;;;;;;;;;;;;9.69;100.00;100910.94;4996214;28;20736;-78